createdAt,value
2018-11-02T00:00:33.868Z,7.9
2018-11-02T00:01:35.287Z,7.9
2018-11-02T00:02:36.879Z,7.9
2018-11-02T00:03:38.455Z,7.9
2018-11-02T00:04:39.702Z,7.9
2018-11-02T00:05:41.300Z,7.9
2018-11-02T00:06:42.550Z,7.9
2018-11-02T00:07:44.374Z,7.9
2018-11-02T00:08:46.730Z,7.1
2018-11-02T00:09:48.434Z,7.3
2018-11-02T00:10:49.715Z,7.5
2018-11-02T00:11:51.302Z,7.7
2018-11-02T00:12:52.720Z,7.9
2018-11-02T00:13:54.168Z,7.9
2018-11-02T00:14:55.748Z,7.9
2018-11-02T00:15:57.327Z,7.9
2018-11-02T00:16:58.906Z,7.9
2018-11-02T00:18:00.162Z,7.9
2018-11-02T00:19:01.596Z,7.2
2018-11-02T00:20:02.999Z,7.4
2018-11-02T00:21:04.596Z,7.6
2018-11-02T00:22:07.647Z,7.8
2018-11-02T00:23:09.277Z,7.9
2018-11-02T00:24:11.073Z,7.9
2018-11-02T00:25:12.485Z,7.9
2018-11-02T00:26:13.946Z,7.2
2018-11-02T00:27:15.406Z,7.4
2018-11-02T00:28:16.988Z,7.5
2018-11-02T00:29:18.239Z,7.7
2018-11-02T00:30:19.537Z,7.8
2018-11-02T00:31:20.773Z,7.9
2018-11-02T00:32:22.367Z,7.9
2018-11-02T00:33:23.819Z,7.9
2018-11-02T00:34:25.040Z,7.9
2018-11-02T00:35:26.744Z,7.9
2018-11-02T00:36:29.609Z,7.9
2018-11-02T00:37:31.463Z,7.9
2018-11-02T00:38:33.053Z,7.9
2018-11-02T00:39:34.492Z,7.9
2018-11-02T00:40:35.748Z,7.9
2018-11-02T00:41:36.978Z,7.9
2018-11-02T00:42:38.209Z,7.9
2018-11-02T00:43:39.655Z,7.9
2018-11-02T00:44:40.898Z,7.9
2018-11-02T00:45:42.139Z,7.9
2018-11-02T00:46:43.579Z,7.9
2018-11-02T00:47:45.184Z,7.9
2018-11-02T00:48:46.773Z,7.9
2018-11-02T00:49:48.700Z,7.9
2018-11-02T00:50:50.420Z,7.9
2018-11-02T00:51:52.010Z,7.9
2018-11-02T00:52:53.089Z,7.9
2018-11-02T00:53:54.565Z,7.9
2018-11-02T00:54:56.153Z,7.9
2018-11-02T00:55:57.567Z,7.9
2018-11-02T00:56:58.973Z,7.9
2018-11-02T00:58:00.221Z,7.9
2018-11-02T00:59:01.451Z,7.9
2018-11-02T01:00:03.056Z,7.9
2018-11-02T01:01:04.466Z,7.9
2018-11-02T01:02:05.909Z,7.9
2018-11-02T01:03:07.882Z,7.9
2018-11-02T01:04:10.536Z,7.9
2018-11-02T01:05:12.422Z,7.9
2018-11-02T01:06:13.819Z,7.9
2018-11-02T01:07:14.927Z,7.9
2018-11-02T01:08:16.346Z,7.9
2018-11-02T01:09:17.775Z,7.9
2018-11-02T01:10:19.107Z,7.9
2018-11-02T01:11:20.695Z,7.9
2018-11-02T01:12:22.255Z,7.9
2018-11-02T01:13:23.875Z,7.9
2018-11-02T01:14:25.133Z,7.9
2018-11-02T01:15:26.563Z,7.8
2018-11-02T01:16:28.298Z,7.8
2018-11-02T01:17:30.597Z,7.8
2018-11-02T01:18:31.995Z,7.8
2018-11-02T01:19:33.419Z,7.8
2018-11-02T01:20:35.096Z,7.9
2018-11-02T01:21:36.175Z,7.9
2018-11-02T01:22:37.583Z,7.9
2018-11-02T01:23:38.835Z,7.9
2018-11-02T01:24:39.891Z,7.9
2018-11-02T01:25:41.289Z,7.9
2018-11-02T01:26:42.679Z,7.9
2018-11-02T01:27:43.901Z,7.9
2018-11-02T01:28:44.947Z,7.9
2018-11-02T01:29:46.630Z,7.9
2018-11-02T01:30:49.227Z,7.8
2018-11-02T01:31:51.169Z,7.8
2018-11-02T01:32:52.579Z,7.8
2018-11-02T01:33:53.979Z,7.8
2018-11-02T01:34:55.079Z,7.8
2018-11-02T01:35:56.299Z,7.8
2018-11-02T01:36:57.529Z,7.8
2018-11-02T01:37:58.815Z,7.8
2018-11-02T01:39:00.239Z,7.8
2018-11-02T01:40:01.834Z,7.8
2018-11-02T01:41:03.253Z,7.8
2018-11-02T01:42:04.490Z,7.8
2018-11-02T01:43:05.894Z,7.8
2018-11-02T01:44:08.817Z,7.8
2018-11-02T01:45:10.266Z,7.8
2018-11-02T01:46:11.539Z,7.8
2018-11-02T01:47:13.184Z,7.8
2018-11-02T01:48:14.407Z,7.8
2018-11-02T01:49:15.999Z,7.8
2018-11-02T01:50:17.398Z,7.8
2018-11-02T01:51:18.983Z,7.8
2018-11-02T01:52:20.218Z,7.8
2018-11-02T01:53:36.472Z,7.8
2018-11-02T01:54:38.039Z,7.8
2018-11-02T01:55:39.309Z,7.8
2018-11-02T01:56:40.537Z,7.8
2018-11-02T01:57:42.169Z,7.7
2018-11-02T01:58:43.219Z,7.7
2018-11-02T01:59:44.615Z,7.7
2018-11-02T02:00:46.219Z,7.7
2018-11-02T02:01:48.191Z,7.7
2018-11-02T02:02:49.757Z,7.7
2018-11-02T02:03:50.993Z,7.7
2018-11-02T02:04:52.596Z,7.7
2018-11-02T02:05:54.002Z,7.7
2018-11-02T02:06:54.892Z,7.6
2018-11-02T02:07:56.474Z,7.6
2018-11-02T02:08:58.048Z,7.5
2018-11-02T02:09:59.639Z,7.4
2018-11-02T02:11:00.879Z,7.3
2018-11-02T02:12:02.131Z,7.3
2018-11-02T02:13:03.933Z,7.2
2018-11-02T02:14:05.579Z,7.2
2018-11-02T02:15:08.385Z,7.2
2018-11-02T02:16:10.019Z,7.2
2018-11-02T02:17:11.073Z,7.2
2018-11-02T02:18:12.140Z,7.2
2018-11-02T02:19:13.379Z,7.2
2018-11-02T02:20:14.993Z,7.2
2018-11-02T02:21:16.402Z,7.2
2018-11-02T02:22:17.968Z,7.2
2018-11-02T02:23:19.579Z,7.2
2018-11-02T02:24:20.976Z,7.2
2018-11-02T02:25:22.246Z,7.1
2018-11-02T02:26:23.679Z,7.1
2018-11-02T02:27:25.087Z,7.1
2018-11-02T02:28:27.266Z,7.1
2018-11-02T02:29:28.561Z,7.1
2018-11-02T02:30:29.932Z,7.1
2018-11-02T02:31:31.509Z,7.1
2018-11-02T02:32:33.338Z,7.1
2018-11-02T02:33:34.929Z,7.1
2018-11-02T02:34:36.337Z,7.1
2018-11-02T02:35:37.576Z,7.1
2018-11-02T02:36:39.199Z,7.1
2018-11-02T02:37:40.305Z,7.1
2018-11-02T02:38:41.583Z,7.1
2018-11-02T02:39:42.498Z,7.1
2018-11-02T02:40:43.569Z,7.1
2018-11-02T02:41:46.108Z,7.1
2018-11-02T02:42:47.526Z,7.1
2018-11-02T02:43:48.780Z,7.1
2018-11-02T02:44:50.015Z,7.1
2018-11-02T02:45:51.438Z,7.1
2018-11-02T02:46:53.019Z,7.1
2018-11-02T02:47:54.427Z,7.2
2018-11-02T02:48:55.838Z,7.1
2018-11-02T02:49:56.903Z,7.2
2018-11-02T02:50:58.328Z,7.2
2018-11-02T02:51:59.595Z,7.2
2018-11-02T02:53:01.170Z,7.2
2018-11-02T02:54:02.600Z,7.2
2018-11-02T02:55:04.652Z,7.2
2018-11-02T02:56:06.049Z,7.2
2018-11-02T02:57:07.909Z,7.2
2018-11-02T02:58:09.502Z,7.2
2018-11-02T02:59:10.930Z,7.2
2018-11-02T03:00:12.495Z,7.3
2018-11-02T03:01:13.739Z,7.3
2018-11-02T03:02:15.344Z,7.4
2018-11-02T03:03:16.956Z,7.4
2018-11-02T03:04:18.359Z,7.4
2018-11-02T03:05:19.777Z,7.5
2018-11-02T03:06:21.199Z,7.5
2018-11-02T03:07:22.763Z,7.5
2018-11-02T03:08:24.177Z,7.6
2018-11-02T03:09:26.650Z,7.7
2018-11-02T03:10:28.595Z,7.8
2018-11-02T03:11:30.225Z,7.8
2018-11-02T03:12:31.818Z,7.9
2018-11-02T03:13:33.060Z,7.9
2018-11-02T03:14:34.460Z,7.9
2018-11-02T03:15:35.703Z,7.9
2018-11-02T03:16:37.100Z,7.9
2018-11-02T03:17:38.492Z,7.9
2018-11-02T03:18:40.932Z,7.9
2018-11-02T03:19:42.254Z,7.9
2018-11-02T03:20:43.910Z,7.9
2018-11-02T03:21:45.187Z,7.9
2018-11-02T03:22:47.609Z,7.9
2018-11-02T03:23:49.265Z,7.9
2018-11-02T03:24:50.868Z,7.9
2018-11-02T03:25:52.479Z,7.9
2018-11-02T03:26:53.720Z,7.9
2018-11-02T03:27:55.297Z,7.9
2018-11-02T03:28:56.704Z,7.9
2018-11-02T03:29:57.964Z,7.9
2018-11-02T03:30:59.445Z,7.9
2018-11-02T03:32:00.850Z,7.9
2018-11-02T03:33:02.097Z,7.9
2018-11-02T03:34:03.694Z,7.9
2018-11-02T03:35:04.770Z,7.9
2018-11-02T03:36:07.255Z,7.8
2018-11-02T03:37:08.493Z,7.8
2018-11-02T03:38:10.067Z,7.8
2018-11-02T03:39:11.476Z,7.8
2018-11-02T03:40:12.703Z,7.8
2018-11-02T03:41:13.945Z,7.8
2018-11-02T03:42:15.251Z,7.8
2018-11-02T03:43:16.989Z,7.8
2018-11-02T03:44:18.429Z,7.8
2018-11-02T03:45:19.851Z,7.8
2018-11-02T03:46:21.294Z,7.8
2018-11-02T03:47:22.699Z,7.8
2018-11-02T03:48:24.188Z,7.8
2018-11-02T03:49:27.680Z,7.8
2018-11-02T03:50:28.908Z,7.8
2018-11-02T03:51:30.478Z,7.8
2018-11-02T03:52:32.095Z,7.9
2018-11-02T03:53:34.103Z,7.9
2018-11-02T03:54:35.630Z,7.9
2018-11-02T03:55:36.715Z,7.8
2018-11-02T03:56:38.341Z,7.8
2018-11-02T03:57:39.939Z,7.8
2018-11-02T03:58:41.254Z,7.8
2018-11-02T03:59:42.884Z,7.8
2018-11-02T04:00:46.157Z,7.8
2018-11-02T04:01:47.603Z,7.8
2018-11-02T04:02:49.018Z,7.8
2018-11-02T04:03:51.572Z,7.8
2018-11-02T04:04:53.147Z,7.8
2018-11-02T04:05:54.404Z,7.8
2018-11-02T04:06:55.822Z,7.9
2018-11-02T04:07:57.415Z,7.9
2018-11-02T04:08:58.529Z,7.9
2018-11-02T04:09:59.596Z,7.9
2018-11-02T04:11:01.415Z,7.9
2018-11-02T04:12:02.840Z,7.9
2018-11-02T04:13:04.091Z,7.9
2018-11-02T04:14:05.680Z,7.9
2018-11-02T04:15:07.087Z,7.9
2018-11-02T04:16:08.681Z,7.9
2018-11-02T04:17:11.479Z,7.9
2018-11-02T04:18:13.150Z,7.8
2018-11-02T04:19:14.567Z,7.8
2018-11-02T04:20:15.958Z,7.7
2018-11-02T04:21:17.201Z,7.6
2018-11-02T04:22:18.645Z,7.5
2018-11-02T04:23:20.052Z,7.3
2018-11-02T04:24:21.641Z,7.2
2018-11-02T04:25:23.251Z,7.2
2018-11-02T04:26:24.482Z,7.1
2018-11-02T04:27:26.108Z,7.1
2018-11-02T04:28:27.690Z,7.2
2018-11-02T04:29:28.924Z,7.2
2018-11-02T04:30:30.285Z,7.1
2018-11-02T04:31:32.396Z,7.1
2018-11-02T04:32:33.607Z,7.2
2018-11-02T04:33:34.499Z,7.2
2018-11-02T04:34:35.976Z,7.1
2018-11-02T04:35:37.351Z,7.2
2018-11-02T04:36:38.790Z,7.2
2018-11-02T04:37:39.863Z,7.1
2018-11-02T04:38:41.300Z,7.2
2018-11-02T04:39:42.920Z,7.2
2018-11-02T04:40:44.498Z,7.2
2018-11-02T04:41:45.552Z,7.2
2018-11-02T04:42:46.803Z,7.2
2018-11-02T04:43:47.870Z,7.2
2018-11-02T04:44:49.529Z,7.2
2018-11-02T04:45:50.766Z,7.2
2018-11-02T04:46:51.838Z,7.2
2018-11-02T04:47:53.076Z,7.2
2018-11-02T04:48:54.136Z,7.3
2018-11-02T04:49:55.545Z,7.3
2018-11-02T04:50:57.453Z,7.4
2018-11-02T04:51:58.672Z,7.5
2018-11-02T04:53:00.254Z,7.6
2018-11-02T04:54:01.558Z,7.7
2018-11-02T04:55:03.162Z,7.8
2018-11-02T04:56:04.620Z,7.9
2018-11-02T04:57:06.532Z,7.5
2018-11-02T04:58:09.434Z,7.7
2018-11-02T04:59:11.130Z,7.8
2018-11-02T05:00:12.583Z,7.9
2018-11-02T05:01:13.844Z,7.9
2018-11-02T05:02:15.260Z,7.9
2018-11-02T05:03:17.334Z,7.9
2018-11-02T05:04:19.197Z,7.9
2018-11-02T05:05:20.649Z,7.9
2018-11-02T05:06:22.078Z,7.9
2018-11-02T05:07:23.482Z,7.9
2018-11-02T05:08:25.095Z,7.9
2018-11-02T05:09:26.557Z,7.9
2018-11-02T05:10:28.192Z,7.9
2018-11-02T05:11:30.554Z,7.9
2018-11-02T05:12:32.786Z,7.9
2018-11-02T05:13:34.186Z,7.8
2018-11-02T05:14:35.789Z,7.8
2018-11-02T05:15:37.202Z,7.8
2018-11-02T05:16:38.286Z,7.8
2018-11-02T05:17:39.182Z,7.8
2018-11-02T05:18:40.064Z,7.8
2018-11-02T05:19:41.488Z,7.8
2018-11-02T05:20:42.887Z,7.8
2018-11-02T05:21:44.610Z,7.8
2018-11-02T05:22:46.173Z,7.8
2018-11-02T05:23:47.751Z,7.8
2018-11-02T05:24:49.276Z,7.8
2018-11-02T05:25:51.241Z,7.8
2018-11-02T05:26:52.797Z,7.8
2018-11-02T05:27:54.221Z,7.8
2018-11-02T05:28:55.624Z,7.7
2018-11-02T05:29:57.192Z,7.7
2018-11-02T05:30:58.269Z,7.7
2018-11-02T05:31:59.708Z,7.7
2018-11-02T05:33:01.105Z,7.7
2018-11-02T05:34:02.498Z,7.6
2018-11-02T05:35:04.120Z,7.6
2018-11-02T05:36:05.351Z,7.6
2018-11-02T05:37:06.595Z,7.6
2018-11-02T05:38:07.877Z,7.6
2018-11-02T05:39:10.216Z,7.6
2018-11-02T05:40:11.552Z,7.6
2018-11-02T05:41:12.969Z,7.6
2018-11-02T05:42:14.371Z,7.6
2018-11-02T05:43:16.039Z,7.6
2018-11-02T05:44:17.649Z,7.5
2018-11-02T05:45:19.249Z,7.5
2018-11-02T05:46:20.650Z,7.5
2018-11-02T05:47:22.548Z,7.5
2018-11-02T05:48:23.898Z,7.5
2018-11-02T05:49:24.806Z,7.5
2018-11-02T05:50:26.276Z,7.4
2018-11-02T05:51:27.685Z,7.4
2018-11-02T05:52:29.628Z,7.4
2018-11-02T05:53:30.870Z,7.4
2018-11-02T05:54:32.681Z,7.3
2018-11-02T05:55:33.903Z,7.3
2018-11-02T05:56:35.402Z,7.4
2018-11-02T05:57:36.839Z,7.3
2018-11-02T05:58:38.225Z,7.3
2018-11-02T05:59:39.504Z,7.3
2018-11-02T06:00:40.952Z,7.3
2018-11-02T06:01:43.450Z,7.3
2018-11-02T06:02:44.978Z,7.3
2018-11-02T06:03:46.409Z,7.3
2018-11-02T06:04:47.676Z,7.4
2018-11-02T06:05:49.702Z,7.4
2018-11-02T06:06:51.000Z,7.4
2018-11-02T06:07:53.765Z,7.4
2018-11-02T06:08:55.284Z,7.3
2018-11-02T06:09:56.518Z,7.2
2018-11-02T06:10:57.938Z,7.2
2018-11-02T06:11:59.376Z,7.2
2018-11-02T06:13:00.443Z,7.2
2018-11-02T06:14:01.697Z,7.2
2018-11-02T06:15:03.363Z,7.2
2018-11-02T06:16:04.774Z,7.2
2018-11-02T06:17:06.221Z,7.2
2018-11-02T06:18:07.622Z,7.2
2018-11-02T06:19:08.847Z,7.2
2018-11-02T06:20:11.899Z,7.2
2018-11-02T06:21:13.299Z,7.1
2018-11-02T06:22:14.700Z,7.2
2018-11-02T06:23:16.233Z,7.2
2018-11-02T06:24:18.160Z,7.2
2018-11-02T06:25:19.181Z,7.2
2018-11-02T06:26:20.598Z,7.2
2018-11-02T06:27:22.000Z,7.2
2018-11-02T06:28:23.414Z,7.2
2018-11-02T06:29:24.669Z,7.2
2018-11-02T06:30:26.504Z,7.2
2018-11-02T06:31:28.162Z,7.2
2018-11-02T06:32:29.776Z,7.2
2018-11-02T06:33:31.700Z,7.3
2018-11-02T06:34:33.821Z,7.3
2018-11-02T06:35:35.325Z,7.4
2018-11-02T06:36:36.570Z,7.5
2018-11-02T06:37:38.191Z,7.6
2018-11-02T06:38:39.835Z,7.7
2018-11-02T06:39:41.303Z,7.8
2018-11-02T06:40:42.727Z,7.8
2018-11-02T06:41:44.317Z,7.9
2018-11-02T06:42:45.562Z,7.9
2018-11-02T06:43:47.159Z,7.9
2018-11-02T06:44:49.273Z,7.9
2018-11-02T06:45:50.972Z,7.9
2018-11-02T06:46:52.224Z,7.9
2018-11-02T06:47:54.518Z,7.1
2018-11-02T06:48:56.172Z,7.3
2018-11-02T06:49:57.614Z,7.4
2018-11-02T06:50:59.778Z,7.5
2018-11-02T06:52:01.286Z,7.5
2018-11-02T06:53:02.583Z,7.6
2018-11-02T06:54:03.830Z,7.7
2018-11-02T06:55:05.086Z,7.8
2018-11-02T06:56:06.683Z,7.8
2018-11-02T06:57:08.299Z,7.9
2018-11-02T06:58:09.888Z,7.9
2018-11-02T06:59:12.266Z,7.9
2018-11-02T07:00:14.003Z,7.9
2018-11-02T07:01:15.468Z,7.9
2018-11-02T07:02:18.113Z,7.9
2018-11-02T07:03:19.741Z,7.9
2018-11-02T07:04:20.979Z,7.2
2018-11-02T07:05:22.390Z,7.3
2018-11-02T07:06:23.976Z,7.3
2018-11-02T07:07:26.952Z,7.4
2018-11-02T07:08:29.364Z,7.4
2018-11-02T07:09:30.506Z,7.5
2018-11-02T07:10:31.740Z,7.5
2018-11-02T07:11:33.167Z,7.5
2018-11-02T07:12:34.224Z,7.5
2018-11-02T07:13:35.468Z,7.5
2018-11-02T07:14:37.051Z,7.5
2018-11-02T07:15:38.477Z,7.5
2018-11-02T07:16:41.152Z,7.5
2018-11-02T07:17:42.755Z,7.6
2018-11-02T07:18:44.194Z,7.6
2018-11-02T07:19:45.430Z,7.7
2018-11-02T07:20:46.899Z,7.7
2018-11-02T07:21:48.178Z,7.7
2018-11-02T07:22:49.630Z,7.7
2018-11-02T07:23:51.666Z,7.7
2018-11-02T07:24:53.634Z,7.8
2018-11-02T07:25:55.089Z,7.8
2018-11-02T07:26:56.725Z,7.8
2018-11-02T07:27:58.159Z,7.8
2018-11-02T07:28:59.588Z,7.8
2018-11-02T07:30:00.991Z,7.8
2018-11-02T07:31:03.257Z,7.9
2018-11-02T07:32:04.807Z,7.8
2018-11-02T07:33:06.430Z,7.8
2018-11-02T07:34:08.190Z,7.8
2018-11-02T07:35:09.664Z,7.8
2018-11-02T07:36:11.254Z,7.8
2018-11-02T07:37:12.689Z,7.8
2018-11-02T07:38:14.271Z,7.2
2018-11-02T07:39:15.513Z,7.2
2018-11-02T07:40:16.783Z,7.3
2018-11-02T07:41:17.851Z,7.4
2018-11-02T07:42:19.250Z,7.6
2018-11-02T07:43:20.671Z,7.9
2018-11-02T07:44:21.795Z,7.6
2018-11-02T07:45:24.413Z,7.8
2018-11-02T07:46:26.138Z,7.5
2018-11-02T07:47:28.046Z,7.7
2018-11-02T07:48:29.527Z,7.7
2018-11-02T07:49:32.012Z,7.7
2018-11-02T07:50:33.355Z,7.7
2018-11-02T07:51:34.779Z,7.6
2018-11-02T07:52:36.201Z,7.4
2018-11-02T07:53:37.637Z,7.3
2018-11-02T07:54:39.248Z,7.2
2018-11-02T07:55:40.554Z,7.2
2018-11-02T07:56:42.063Z,7.2
2018-11-02T07:57:43.669Z,7.1
2018-11-02T07:58:45.421Z,7.1
2018-11-02T07:59:48.680Z,7.1
2018-11-02T08:00:50.389Z,7.2
2018-11-02T08:01:52.873Z,7.1
2018-11-02T08:02:54.330Z,7.1
2018-11-02T08:03:55.826Z,7.1
2018-11-02T08:04:57.435Z,7.1
2018-11-02T08:05:59.112Z,7.1
2018-11-02T08:07:00.559Z,7.1
2018-11-02T08:08:02.142Z,7.1
2018-11-02T08:09:03.539Z,7.2
2018-11-02T08:10:04.934Z,7.2
2018-11-02T08:11:06.340Z,7.2
2018-11-02T08:12:07.914Z,7.2
2018-11-02T08:13:09.314Z,7.1
2018-11-02T08:14:11.187Z,7.2
2018-11-02T08:15:12.437Z,7.2
2018-11-02T08:16:14.009Z,7.2
2018-11-02T08:17:15.415Z,7.2
2018-11-02T08:18:16.508Z,7.2
2018-11-02T08:19:17.927Z,7.2
2018-11-02T08:20:19.317Z,7.2
2018-11-02T08:21:20.711Z,7.2
2018-11-02T08:22:22.080Z,7.3
2018-11-02T08:23:23.629Z,7.3
2018-11-02T08:24:25.628Z,7.4
2018-11-02T08:25:27.126Z,7.4
2018-11-02T08:26:28.521Z,7.5
2018-11-02T08:27:29.905Z,7.6
2018-11-02T08:28:31.316Z,7.7
2018-11-02T08:29:32.727Z,7.8
2018-11-02T08:30:34.118Z,7.8
2018-11-02T08:31:35.355Z,7.9
2018-11-02T08:32:36.788Z,7.9
2018-11-02T08:33:38.004Z,7.9
2018-11-02T08:34:39.466Z,7.2
2018-11-02T08:35:40.711Z,7.4
2018-11-02T08:36:42.112Z,7.5
2018-11-02T08:37:43.534Z,7.6
2018-11-02T08:38:44.957Z,7.7
2018-11-02T08:39:46.519Z,7.8
2018-11-02T08:40:47.903Z,7.8
2018-11-02T08:41:49.455Z,7.9
2018-11-02T08:42:51.009Z,7.9
2018-11-02T08:43:52.227Z,7.9
2018-11-02T08:44:53.622Z,7.9
2018-11-02T08:45:55.216Z,7.9
2018-11-02T08:46:56.759Z,7.9
2018-11-02T08:47:57.979Z,7.9
2018-11-02T08:48:59.371Z,7.9
2018-11-02T08:50:00.776Z,7.9
2018-11-02T08:51:01.995Z,7.9
2018-11-02T08:52:03.248Z,7.8
2018-11-02T08:53:04.863Z,7.8
2018-11-02T08:54:06.265Z,7.8
2018-11-02T08:55:07.906Z,7.8
2018-11-02T08:56:09.470Z,7.8
2018-11-02T08:57:11.020Z,7.8
2018-11-02T08:58:13.445Z,7.8
2018-11-02T08:59:16.089Z,7.8
2018-11-02T09:00:18.121Z,7.8
2018-11-02T09:01:19.587Z,7.8
2018-11-02T09:02:21.180Z,7.9
2018-11-02T09:03:22.389Z,7.8
2018-11-02T09:04:23.790Z,7.8
2018-11-02T09:05:25.217Z,7.8
2018-11-02T09:06:26.693Z,7.8
2018-11-02T09:07:28.081Z,7.8
2018-11-02T09:08:29.633Z,7.8
2018-11-02T09:09:31.048Z,7.8
2018-11-02T09:10:32.649Z,7.8
2018-11-02T09:11:34.209Z,7.8
2018-11-02T09:12:35.592Z,7.8
2018-11-02T09:13:36.989Z,7.8
2018-11-02T09:14:38.377Z,7.8
2018-11-02T09:15:39.940Z,7.8
2018-11-02T09:16:41.369Z,7.9
2018-11-02T09:17:42.618Z,7.9
2018-11-02T09:18:44.015Z,7.9
2018-11-02T09:19:45.084Z,7.9
2018-11-02T09:20:46.508Z,7.9
2018-11-02T09:21:48.177Z,7.9
2018-11-02T09:22:49.244Z,7.9
2018-11-02T09:23:50.487Z,7.9
2018-11-02T09:24:52.040Z,7.9
2018-11-02T09:25:53.431Z,7.9
2018-11-02T09:26:55.185Z,7.9
2018-11-02T09:27:56.772Z,7.9
2018-11-02T09:28:58.033Z,7.8
2018-11-02T09:29:59.581Z,7.8
2018-11-02T09:31:01.036Z,7.7
2018-11-02T09:32:02.441Z,7.6
2018-11-02T09:33:04.139Z,7.5
2018-11-02T09:34:05.733Z,7.4
2018-11-02T09:35:07.358Z,7.2
2018-11-02T09:36:08.940Z,7.2
2018-11-02T09:37:10.556Z,7.1
2018-11-02T09:38:11.628Z,7.2
2018-11-02T09:39:12.892Z,7.2
2018-11-02T09:40:14.926Z,7.2
2018-11-02T09:41:15.930Z,7.1
2018-11-02T09:42:17.198Z,7.1
2018-11-02T09:43:18.456Z,7.2
2018-11-02T09:44:20.445Z,7.2
2018-11-02T09:45:22.044Z,7.2
2018-11-02T09:46:23.336Z,7.2
2018-11-02T09:47:24.433Z,7.1
2018-11-02T09:48:25.876Z,7.2
2018-11-02T09:49:27.462Z,7.2
2018-11-02T09:50:28.933Z,7.2
2018-11-02T09:51:31.241Z,7.2
2018-11-02T09:52:32.961Z,7.2
2018-11-02T09:53:34.582Z,7.2
2018-11-02T09:54:36.208Z,7.2
2018-11-02T09:55:37.308Z,7.2
2018-11-02T09:56:38.918Z,7.2
2018-11-02T09:57:42.030Z,7.2
2018-11-02T09:58:44.166Z,7.2
2018-11-02T09:59:45.860Z,7.2
2018-11-02T10:00:48.093Z,7.2
2018-11-02T10:01:49.838Z,7.3
2018-11-02T10:02:51.240Z,7.3
2018-11-02T10:03:52.931Z,7.3
2018-11-02T10:04:54.025Z,7.4
2018-11-02T10:05:55.472Z,7.4
2018-11-02T10:06:56.903Z,7.5
2018-11-02T10:07:58.350Z,7.6
2018-11-02T10:09:00.469Z,7.7
2018-11-02T10:10:01.784Z,7.8
2018-11-02T10:11:03.063Z,7.9
2018-11-02T10:12:05.530Z,7.9
2018-11-02T10:13:07.310Z,7.9
2018-11-02T10:14:08.589Z,7.9
2018-11-02T10:15:10.187Z,7.8
2018-11-02T10:16:11.465Z,7.9
2018-11-02T10:17:13.110Z,7.9
2018-11-02T10:18:14.398Z,7.3
2018-11-02T10:19:15.830Z,7.5
2018-11-02T10:20:17.274Z,7.6
2018-11-02T10:21:18.690Z,7.7
2018-11-02T10:22:19.939Z,7.8
2018-11-02T10:23:21.220Z,7.9
2018-11-02T10:24:22.749Z,7.9
2018-11-02T10:25:24.547Z,7.9
2018-11-02T10:26:26.328Z,7.9
2018-11-02T10:27:27.804Z,7.9
2018-11-02T10:28:28.707Z,7.9
2018-11-02T10:29:30.120Z,7.9
2018-11-02T10:30:31.720Z,7.9
2018-11-02T10:31:33.330Z,7.9
2018-11-02T10:32:35.092Z,7.9
2018-11-02T10:33:36.507Z,7.9
2018-11-02T10:34:37.818Z,7.9
2018-11-02T10:35:39.873Z,7.9
2018-11-02T10:36:41.254Z,7.8
2018-11-02T10:37:42.699Z,7.8
2018-11-02T10:38:44.727Z,7.8
2018-11-02T10:39:47.000Z,7.8
2018-11-02T10:40:48.717Z,7.8
2018-11-02T10:41:50.157Z,7.8
2018-11-02T10:42:51.793Z,7.8
2018-11-02T10:43:53.215Z,7.8
2018-11-02T10:44:55.363Z,7.8
2018-11-02T10:45:57.558Z,7.8
2018-11-02T10:46:59.059Z,7.8
2018-11-02T10:48:00.343Z,7.8
2018-11-02T10:49:01.889Z,7.8
2018-11-02T10:50:02.823Z,7.8
2018-11-02T10:51:04.642Z,7.8
2018-11-02T10:52:07.448Z,7.8
2018-11-02T10:53:09.224Z,7.8
2018-11-02T10:54:10.512Z,7.8
2018-11-02T10:55:12.152Z,7.8
2018-11-02T10:56:13.835Z,7.9
2018-11-02T10:57:15.310Z,7.9
2018-11-02T10:58:16.920Z,7.9
2018-11-02T10:59:18.386Z,7.9
2018-11-02T11:00:19.652Z,7.9
2018-11-02T11:01:21.882Z,7.9
2018-11-02T11:02:23.123Z,7.9
2018-11-02T11:03:24.564Z,7.9
2018-11-02T11:04:26.196Z,7.8
2018-11-02T11:05:29.596Z,7.8
2018-11-02T11:06:31.134Z,7.8
2018-11-02T11:07:32.991Z,7.9
2018-11-02T11:08:34.419Z,7.9
2018-11-02T11:09:35.726Z,7.9
2018-11-02T11:10:37.368Z,7.9
2018-11-02T11:11:39.554Z,7.2
2018-11-02T11:12:43.776Z,7.3
2018-11-02T11:13:48.802Z,7.3
2018-11-02T11:14:50.589Z,7.3
2018-11-02T11:15:51.856Z,7.3
2018-11-02T11:16:53.094Z,7.2
2018-11-02T11:17:54.041Z,7.2
2018-11-02T11:18:55.480Z,7.2
2018-11-02T11:19:57.295Z,7.2
2018-11-02T11:20:59.923Z,7.1
2018-11-02T11:22:01.847Z,7.2
2018-11-02T11:23:03.108Z,7.1
2018-11-02T11:24:04.710Z,7.2
2018-11-02T11:25:05.999Z,7.2
2018-11-02T11:26:07.624Z,7.1
2018-11-02T11:27:09.253Z,7.1
2018-11-02T11:28:10.689Z,7.1
2018-11-02T11:29:12.400Z,7.2
2018-11-02T11:30:14.192Z,7.1
2018-11-02T11:31:15.279Z,7.2
2018-11-02T11:32:17.038Z,7.2
2018-11-02T11:33:18.625Z,7.2
2018-11-02T11:34:20.967Z,7.2
2018-11-02T11:35:22.418Z,7.2
2018-11-02T11:36:23.921Z,7.2
2018-11-02T11:37:25.431Z,7.2
2018-11-02T11:38:26.695Z,7.2
2018-11-02T11:39:28.303Z,7.2
2018-11-02T11:40:29.753Z,7.2
2018-11-02T11:41:31.467Z,7.2
2018-11-02T11:42:32.570Z,7.2
2018-11-02T11:43:33.858Z,7.2
2018-11-02T11:44:34.785Z,7.3
2018-11-02T11:45:36.057Z,7.3
2018-11-02T11:46:38.147Z,7.3
2018-11-02T11:47:39.581Z,7.4
2018-11-02T11:48:41.227Z,7.4
2018-11-02T11:49:42.440Z,7.5
2018-11-02T11:50:43.699Z,7.5
2018-11-02T11:51:44.781Z,7.6
2018-11-02T11:52:46.218Z,7.7
2018-11-02T11:53:47.470Z,7.8
2018-11-02T11:54:48.913Z,7.8
2018-11-02T11:55:50.541Z,7.9
2018-11-02T11:56:51.520Z,7.9
2018-11-02T11:57:52.662Z,7.9
2018-11-02T11:58:53.958Z,7.9
2018-11-02T11:59:56.598Z,7.9
2018-11-02T12:00:58.520Z,7.9
2018-11-02T12:01:59.805Z,7.9
2018-11-02T12:03:01.250Z,7.9
2018-11-02T12:04:02.695Z,7.9
2018-11-02T12:05:04.269Z,7.9
2018-11-02T12:06:05.809Z,7.9
2018-11-02T12:07:07.238Z,7.9
2018-11-02T12:08:08.520Z,7.9
2018-11-02T12:09:10.626Z,7.9
2018-11-02T12:10:12.343Z,7.9
2018-11-02T12:11:13.389Z,7.9
2018-11-02T12:12:14.817Z,7.9
2018-11-02T12:13:17.194Z,7.9
2018-11-02T12:14:18.795Z,7.1
2018-11-02T12:15:20.410Z,7.3
2018-11-02T12:16:21.839Z,7.4
2018-11-02T12:17:23.106Z,7.4
2018-11-02T12:18:24.214Z,7.5
2018-11-02T12:19:25.844Z,7.5
2018-11-02T12:20:27.321Z,7.6
2018-11-02T12:21:28.793Z,7.6
2018-11-02T12:22:30.285Z,7.7
2018-11-02T12:23:32.426Z,7.7
2018-11-02T12:24:34.027Z,7.7
2018-11-02T12:25:35.329Z,7.8
2018-11-02T12:26:37.408Z,7.8
2018-11-02T12:27:39.375Z,7.8
2018-11-02T12:28:41.936Z,7.8
2018-11-02T12:29:43.438Z,7.8
2018-11-02T12:30:45.568Z,7.8
2018-11-02T12:31:47.059Z,7.8
2018-11-02T12:32:48.692Z,7.8
2018-11-02T12:33:49.979Z,7.8
2018-11-02T12:34:51.068Z,7.8
2018-11-02T12:35:52.684Z,7.8
2018-11-02T12:36:54.648Z,7.8
2018-11-02T12:37:55.901Z,7.8
2018-11-02T12:38:57.550Z,7.8
2018-11-02T12:39:58.825Z,7.8
2018-11-02T12:41:01.548Z,7.8
2018-11-02T12:42:02.821Z,7.8
2018-11-02T12:43:19.452Z,7.8
2018-11-02T12:44:22.053Z,7.8
2018-11-02T12:45:23.484Z,7.8
2018-11-02T12:46:25.441Z,7.8
2018-11-02T12:47:26.686Z,7.8
2018-11-02T12:48:28.915Z,7.9
2018-11-02T12:49:33.279Z,7.9
2018-11-02T12:50:36.107Z,7.8
2018-11-02T12:51:37.420Z,7.8
2018-11-02T12:52:38.873Z,7.8
2018-11-02T12:53:40.024Z,7.8
2018-11-02T12:54:41.500Z,7.8
2018-11-02T12:55:42.791Z,7.8
2018-11-02T12:56:44.211Z,7.8
2018-11-02T12:57:45.503Z,7.9
2018-11-02T12:58:47.107Z,7.9
2018-11-02T12:59:49.585Z,7.2
2018-11-02T13:00:50.942Z,7.3
2018-11-02T13:01:52.389Z,7.3
2018-11-02T13:02:54.024Z,7.4
2018-11-02T13:03:55.460Z,7.4
2018-11-02T13:04:56.549Z,7.4
2018-11-02T13:05:57.854Z,7.4
2018-11-02T13:06:59.292Z,7.3
2018-11-02T13:08:00.901Z,7.3
2018-11-02T13:09:02.166Z,7.2
2018-11-02T13:10:03.434Z,7.2
2018-11-02T13:11:05.058Z,7.1
2018-11-02T13:12:06.559Z,7.2
2018-11-02T13:13:09.776Z,7.2
2018-11-02T13:14:11.389Z,7.2
2018-11-02T13:15:12.729Z,7.2
2018-11-02T13:16:15.273Z,7.2
2018-11-02T13:17:16.725Z,7.1
2018-11-02T13:18:18.698Z,7.1
2018-11-02T13:19:19.945Z,7.2
2018-11-02T13:20:22.155Z,7.1
2018-11-02T13:21:23.660Z,7.1
2018-11-02T13:22:25.660Z,7.2
2018-11-02T13:23:27.291Z,7.2
2018-11-02T13:24:28.739Z,7.2
2018-11-02T13:25:30.799Z,7.2
2018-11-02T13:26:32.632Z,7.2
2018-11-02T13:27:35.167Z,7.2
2018-11-02T13:28:36.408Z,7.2
2018-11-02T13:29:38.039Z,7.2
2018-11-02T13:30:40.186Z,7.1
2018-11-02T13:31:42.180Z,7.2
2018-11-02T13:32:43.486Z,7.2
2018-11-02T13:33:44.936Z,7.2
2018-11-02T13:34:46.555Z,7.2
2018-11-02T13:35:48.196Z,7.2
2018-11-02T13:36:50.621Z,7.2
2018-11-02T13:37:52.174Z,7.2
2018-11-02T13:38:53.645Z,7.2
2018-11-02T13:39:55.123Z,7.2
2018-11-02T13:40:56.597Z,7.2
2018-11-02T13:41:59.040Z,7.2
2018-11-02T13:43:01.410Z,7.2
2018-11-02T13:44:02.830Z,7.3
2018-11-02T13:45:03.921Z,7.3
2018-11-02T13:46:05.402Z,7.3
2018-11-02T13:47:06.910Z,7.4
2018-11-02T13:48:08.388Z,7.5
2018-11-02T13:49:10.009Z,7.5
2018-11-02T13:50:11.992Z,7.6
2018-11-02T13:51:13.635Z,7.7
2018-11-02T13:52:15.086Z,7.8
2018-11-02T13:53:16.541Z,7.8
2018-11-02T13:54:17.811Z,7.9
2018-11-02T13:55:19.092Z,7.9
2018-11-02T13:56:21.864Z,7.2
2018-11-02T13:57:23.411Z,7.4
2018-11-02T13:58:25.054Z,7.6
2018-11-02T13:59:26.320Z,7.8
2018-11-02T14:00:27.956Z,7.9
2018-11-02T14:01:30.203Z,7.9
2018-11-02T14:02:31.931Z,7.9
2018-11-02T14:03:33.558Z,7.9
2018-11-02T14:04:34.814Z,7.9
2018-11-02T14:05:35.948Z,7.9
2018-11-02T14:06:37.408Z,7.9
2018-11-02T14:07:38.877Z,7.8
2018-11-02T14:08:40.333Z,7.9